createdAt,value
2017-08-20T00:01:06.510Z,8.03
2017-08-20T00:03:34.079Z,8.40
2017-08-20T00:06:01.617Z,9.05
2017-08-20T00:08:29.960Z,7.55
2017-08-20T00:10:57.508Z,7.72
2017-08-20T00:13:25.060Z,7.97
2017-08-20T00:15:52.627Z,8.03
2017-08-20T00:18:20.171Z,8.10
2017-08-20T00:20:47.737Z,6.93
2017-08-20T00:23:15.286Z,8.13
2017-08-20T00:25:42.835Z,5.70
2017-08-20T00:28:10.601Z,6.10
2017-08-20T00:30:38.171Z,4.63
2017-08-20T00:33:05.751Z,5.03
2017-08-20T00:35:33.290Z,5.10
2017-08-20T00:38:00.840Z,4.47
2017-08-20T00:40:28.393Z,5.10
2017-08-20T00:42:56.701Z,4.13
2017-08-20T00:45:24.303Z,5.00
2017-08-20T00:47:51.858Z,5.13
2017-08-20T00:50:19.410Z,4.47
2017-08-20T00:52:46.967Z,3.80
2017-08-20T00:55:14.537Z,4.13
2017-08-20T00:57:42.104Z,4.20
2017-08-20T01:00:09.643Z,3.67
2017-08-20T01:02:37.196Z,4.20
2017-08-20T01:05:04.756Z,4.23
2017-08-20T01:07:32.293Z,4.60
2017-08-20T01:09:59.875Z,4.27
2017-08-20T01:12:27.429Z,4.57
2017-08-20T01:14:54.979Z,3.17
2017-08-20T01:17:22.529Z,4.37
2017-08-20T01:19:50.854Z,5.07
2017-08-20T01:22:18.427Z,4.67
2017-08-20T01:24:45.956Z,4.00
2017-08-20T01:27:14.259Z,5.87
2017-08-20T01:29:41.839Z,4.90
2017-08-20T01:32:09.392Z,5.20
2017-08-20T01:34:36.948Z,4.70
2017-08-20T01:37:04.514Z,4.40
2017-08-20T01:39:32.040Z,4.30
2017-08-20T01:41:59.587Z,4.70
2017-08-20T01:44:27.930Z,3.83
2017-08-20T01:46:55.480Z,4.67
2017-08-20T01:49:23.045Z,4.20
2017-08-20T01:51:50.620Z,5.43
2017-08-20T01:54:18.150Z,5.20
2017-08-20T01:56:45.699Z,5.40
2017-08-20T01:59:13.271Z,5.30
2017-08-20T02:01:40.811Z,5.23
2017-08-20T02:04:08.342Z,5.53
2017-08-20T02:06:35.924Z,6.80
2017-08-20T02:09:03.457Z,6.67
2017-08-20T02:11:31.002Z,7.57
2017-08-20T02:13:58.557Z,6.83
2017-08-20T02:16:26.089Z,7.00
2017-08-20T02:18:53.639Z,7.73
2017-08-20T02:21:21.216Z,6.60
2017-08-20T02:23:48.746Z,8.23
2017-08-20T02:26:16.309Z,7.80
2017-08-20T02:28:43.886Z,7.80
2017-08-20T02:31:11.427Z,8.30
2017-08-20T02:33:38.965Z,8.80
2017-08-20T02:36:06.540Z,7.97
2017-08-20T02:38:34.060Z,8.20
2017-08-20T02:41:01.603Z,8.10
2017-08-20T02:43:29.166Z,8.77
2017-08-20T02:45:56.721Z,9.10
2017-08-20T02:48:24.257Z,8.50
2017-08-20T02:50:51.813Z,9.67
2017-08-20T02:53:19.354Z,8.37
2017-08-20T02:55:46.893Z,8.40
2017-08-20T02:58:14.448Z,7.30
2017-08-20T03:00:41.995Z,7.97
2017-08-20T03:03:09.540Z,9.37
2017-08-20T03:05:37.127Z,8.73
2017-08-20T03:08:04.661Z,7.93
2017-08-20T03:10:32.976Z,7.90
2017-08-20T03:13:00.564Z,7.27
2017-08-20T03:15:28.101Z,6.90
2017-08-20T03:17:55.625Z,7.73
2017-08-20T03:20:23.966Z,9.93
2017-08-20T03:22:51.497Z,7.20
2017-08-20T03:25:19.032Z,9.20
2017-08-20T03:27:46.610Z,9.40
2017-08-20T03:30:14.144Z,8.07
2017-08-20T03:32:41.694Z,9.87
2017-08-20T03:35:09.258Z,10.30
2017-08-20T03:37:36.793Z,10.90
2017-08-20T03:40:04.325Z,11.90
2017-08-20T03:42:31.913Z,11.40
2017-08-20T03:44:59.452Z,12.23
2017-08-20T03:47:26.981Z,12.57
2017-08-20T03:49:55.335Z,12.67
2017-08-20T03:52:22.895Z,13.67
2017-08-20T03:54:50.442Z,11.60
2017-08-20T03:57:18.012Z,11.30
2017-08-20T03:59:45.560Z,12.10
2017-08-20T04:02:13.107Z,11.80
2017-08-20T04:04:40.691Z,11.03
2017-08-20T04:07:08.216Z,9.87
2017-08-20T04:09:35.768Z,11.23
2017-08-20T04:12:03.355Z,9.33
2017-08-20T04:14:30.887Z,10.10
2017-08-20T04:16:58.444Z,8.60
2017-08-20T04:19:26.004Z,7.87
2017-08-20T04:21:54.318Z,8.33
2017-08-20T04:24:21.857Z,8.63
2017-08-20T04:26:49.529Z,8.20
2017-08-20T04:29:17.079Z,8.10
2017-08-20T04:31:44.641Z,9.43
2017-08-20T04:34:12.221Z,9.50
2017-08-20T04:36:39.765Z,8.37
2017-08-20T04:39:07.313Z,10.10
2017-08-20T04:41:34.899Z,10.87
2017-08-20T04:44:02.447Z,11.63
2017-08-20T04:46:29.993Z,13.63
2017-08-20T04:48:57.565Z,13.87
2017-08-20T04:51:25.103Z,13.97
2017-08-20T04:53:52.650Z,15.67
2017-08-20T04:56:20.224Z,14.53
2017-08-20T04:58:47.780Z,15.47
2017-08-20T05:01:15.343Z,13.03
2017-08-20T05:03:42.919Z,13.43
2017-08-20T05:06:10.475Z,12.53
2017-08-20T05:08:38.009Z,14.10
2017-08-20T05:11:05.592Z,11.27
2017-08-20T05:13:33.145Z,12.50
2017-08-20T05:16:00.688Z,11.03
2017-08-20T05:18:28.249Z,11.40
2017-08-20T05:20:55.903Z,10.80
2017-08-20T05:23:23.455Z,10.10
2017-08-20T05:25:51.020Z,10.27
2017-08-20T05:28:18.567Z,10.53
2017-08-20T05:30:46.875Z,9.67
2017-08-20T05:33:14.549Z,11.30
2017-08-20T05:35:42.094Z,9.57
2017-08-20T05:38:09.633Z,9.87
2017-08-20T05:40:37.966Z,11.27
2017-08-20T05:43:05.496Z,8.50
2017-08-20T05:45:33.071Z,10.13
2017-08-20T05:48:00.669Z,10.00
2017-08-20T05:50:28.231Z,9.07
2017-08-20T05:52:55.780Z,10.67
2017-08-20T05:55:23.362Z,11.17
2017-08-20T05:57:50.916Z,10.33
2017-08-20T06:00:18.462Z,10.13
2017-08-20T06:02:46.039Z,10.60
2017-08-20T06:05:13.573Z,10.90
2017-08-20T06:07:41.109Z,10.60
2017-08-20T06:10:08.695Z,10.90
2017-08-20T06:12:36.242Z,10.83
2017-08-20T06:15:03.777Z,13.67
2017-08-20T06:17:31.344Z,14.60
2017-08-20T06:19:58.890Z,13.70
2017-08-20T06:22:26.428Z,13.57
2017-08-20T06:24:53.988Z,15.43
2017-08-20T06:27:21.524Z,14.47
2017-08-20T06:29:49.082Z,13.33
2017-08-20T06:32:16.670Z,12.50
2017-08-20T06:34:44.224Z,14.53
2017-08-20T06:37:11.757Z,12.30
2017-08-20T06:39:39.352Z,12.93
2017-08-20T06:42:06.909Z,14.50
2017-08-20T06:44:34.467Z,12.70
2017-08-20T06:47:02.049Z,14.40
2017-08-20T06:49:29.588Z,13.73
2017-08-20T06:51:57.121Z,14.30
2017-08-20T06:54:24.694Z,15.93
2017-08-20T06:56:52.226Z,15.87
2017-08-20T06:59:19.784Z,16.03
2017-08-20T07:01:47.374Z,13.97
2017-08-20T07:04:14.929Z,14.10
2017-08-20T07:06:42.463Z,13.57
2017-08-20T07:09:10.037Z,13.17
2017-08-20T07:11:38.341Z,13.30
2017-08-20T07:14:05.895Z,13.73
2017-08-20T07:16:33.461Z,12.43
2017-08-20T07:19:01.020Z,12.47
2017-08-20T07:21:28.561Z,12.40
2017-08-20T07:23:56.892Z,11.87
2017-08-20T07:26:24.433Z,12.10
2017-08-20T07:28:51.960Z,11.80
2017-08-20T07:31:19.534Z,11.90
2017-08-20T07:33:47.078Z,11.10
2017-08-20T07:36:15.399Z,9.93
2017-08-20T07:38:42.987Z,13.20
2017-08-20T07:41:10.539Z,11.03
2017-08-20T07:43:38.091Z,12.20
2017-08-20T07:46:05.650Z,10.10
2017-08-20T07:48:33.181Z,10.33
2017-08-20T07:51:00.717Z,11.90
2017-08-20T07:53:28.296Z,9.27
2017-08-20T07:55:55.851Z,8.60
2017-08-20T07:58:24.174Z,11.57
2017-08-20T08:00:51.759Z,9.83
2017-08-20T08:03:19.307Z,8.67
2017-08-20T08:05:46.846Z,8.00
2017-08-20T08:08:14.449Z,7.70
2017-08-20T08:10:42.011Z,7.67
2017-08-20T08:13:09.575Z,8.00
2017-08-20T08:15:37.137Z,8.50
2017-08-20T08:18:04.673Z,7.60
2017-08-20T08:20:32.211Z,7.17
2017-08-20T08:23:01.192Z,7.33
2017-08-20T08:25:28.747Z,7.40
2017-08-20T08:27:57.036Z,5.90
2017-08-20T08:30:25.391Z,5.40
2017-08-20T08:32:52.948Z,6.37
2017-08-20T08:35:20.495Z,4.87
2017-08-20T08:37:48.076Z,5.03
2017-08-20T08:40:15.609Z,4.60
2017-08-20T08:42:43.161Z,7.23
2017-08-20T08:45:10.718Z,7.00
2017-08-20T08:47:38.269Z,3.90
2017-08-20T08:50:05.802Z,4.20
2017-08-20T08:52:33.381Z,3.70
2017-08-20T08:55:00.927Z,4.17
2017-08-20T08:57:29.233Z,3.90
2017-08-20T08:59:57.233Z,3.73
2017-08-20T09:02:24.780Z,3.60
2017-08-20T09:04:52.313Z,3.93
2017-08-20T09:07:19.891Z,4.20
2017-08-20T09:09:47.442Z,4.90
2017-08-20T09:12:14.981Z,2.60
2017-08-20T09:14:43.326Z,3.57
2017-08-20T09:17:10.853Z,4.20
2017-08-20T09:19:38.415Z,3.07
2017-08-20T09:22:05.991Z,2.80
2017-08-20T09:24:33.536Z,3.20
2017-08-20T09:27:01.081Z,3.40
2017-08-20T09:29:28.653Z,3.07
2017-08-20T09:31:56.188Z,3.87
2017-08-20T09:34:24.481Z,3.90
2017-08-20T09:36:52.048Z,3.37
2017-08-20T09:39:19.620Z,3.47
2017-08-20T09:41:47.173Z,3.57
2017-08-20T09:44:14.734Z,3.03
2017-08-20T09:46:42.292Z,3.60
2017-08-20T09:49:09.842Z,3.20
2017-08-20T09:51:38.195Z,3.50
2017-08-20T09:54:05.753Z,3.40
2017-08-20T09:56:33.288Z,2.43
2017-08-20T09:59:00.857Z,2.90
2017-08-20T10:01:28.411Z,2.70
2017-08-20T10:03:55.967Z,3.10
2017-08-20T10:06:23.536Z,3.63
2017-08-20T10:08:51.070Z,2.50
2017-08-20T10:11:18.604Z,3.43
2017-08-20T10:13:46.191Z,2.70
2017-08-20T10:16:13.726Z,2.40
2017-08-20T10:18:41.258Z,2.20
2017-08-20T10:21:08.834Z,2.57
2017-08-20T10:23:36.381Z,2.20
2017-08-20T10:26:03.935Z,2.40
2017-08-20T10:28:31.511Z,2.80
2017-08-20T10:30:59.055Z,2.40
2017-08-20T10:33:26.592Z,2.43
2017-08-20T10:35:54.183Z,3.63
2017-08-20T10:38:21.713Z,3.23
2017-08-20T10:40:49.252Z,2.50
2017-08-20T10:43:17.600Z,2.63
2017-08-20T10:45:45.130Z,2.53
2017-08-20T10:48:12.678Z,2.00
2017-08-20T10:50:40.260Z,2.37
2017-08-20T10:53:07.812Z,2.97
2017-08-20T10:55:35.363Z,3.40
2017-08-20T10:58:02.942Z,2.30
2017-08-20T11:00:30.482Z,2.97
2017-08-20T11:02:58.026Z,2.93
2017-08-20T11:05:26.390Z,2.80
2017-08-20T11:07:53.939Z,2.97
2017-08-20T11:10:21.464Z,3.40
2017-08-20T11:12:49.025Z,2.83
2017-08-20T11:15:16.553Z,3.00
2017-08-20T11:17:44.861Z,2.90
2017-08-20T11:20:12.426Z,2.93
2017-08-20T11:22:39.962Z,2.87
2017-08-20T11:25:08.257Z,2.80
2017-08-20T11:27:35.827Z,3.40
2017-08-20T11:30:03.376Z,2.70
2017-08-20T11:32:30.897Z,2.77
2017-08-20T11:34:58.453Z,3.30
2017-08-20T11:37:26.008Z,3.47
2017-08-20T11:39:53.580Z,3.00
2017-08-20T11:42:21.137Z,2.83
2017-08-20T11:44:48.692Z,2.80
2017-08-20T11:47:16.541Z,2.70
2017-08-20T11:49:44.128Z,2.87
2017-08-20T11:52:11.737Z,2.40
2017-08-20T11:54:39.279Z,3.07
2017-08-20T11:57:07.619Z,2.70
2017-08-20T11:59:35.159Z,3.10
2017-08-20T12:02:02.687Z,2.50
2017-08-20T12:04:31.023Z,2.47
2017-08-20T12:06:58.576Z,3.50
2017-08-20T12:09:26.110Z,2.20
2017-08-20T12:11:53.695Z,2.40
2017-08-20T12:14:21.229Z,2.40
2017-08-20T12:16:48.772Z,2.50
2017-08-20T12:19:17.118Z,2.23
2017-08-20T12:21:44.655Z,2.70
2017-08-20T12:24:12.184Z,2.43
2017-08-20T12:26:40.527Z,2.63
2017-08-20T12:29:08.066Z,2.83
2017-08-20T12:31:35.598Z,2.20
2017-08-20T12:34:03.186Z,2.50
2017-08-20T12:36:30.735Z,2.77
2017-08-20T12:38:58.295Z,2.70
2017-08-20T12:41:25.856Z,2.87
2017-08-20T12:43:53.397Z,3.10
2017-08-20T12:46:20.952Z,2.40
2017-08-20T12:48:49.278Z,2.70
2017-08-20T12:51:16.838Z,2.40
2017-08-20T12:53:44.400Z,2.60
2017-08-20T12:56:11.979Z,2.97
2017-08-20T12:58:39.520Z,2.97
2017-08-20T13:01:08.057Z,3.40
2017-08-20T13:03:36.407Z,3.20
2017-08-20T13:06:03.936Z,2.57
2017-08-20T13:08:32.387Z,2.43
2017-08-20T13:13:31.700Z,2.90
2017-08-20T13:15:59.254Z,2.47
2017-08-20T13:18:26.820Z,2.20
2017-08-20T13:20:54.362Z,2.33
2017-08-20T13:23:21.913Z,2.27
2017-08-20T13:25:49.455Z,2.30
2017-08-20T13:28:16.993Z,3.20
2017-08-20T13:30:44.553Z,2.57
2017-08-20T13:33:12.102Z,3.80
2017-08-20T13:35:40.421Z,2.90
2017-08-20T13:38:08.152Z,2.70
2017-08-20T13:40:35.698Z,3.10
2017-08-20T13:43:03.217Z,2.87
2017-08-20T13:45:30.792Z,2.97
2017-08-20T13:47:58.774Z,3.57
2017-08-20T13:50:26.468Z,3.27
2017-08-20T13:52:55.127Z,3.77
2017-08-20T13:55:22.655Z,3.60
2017-08-20T13:57:50.203Z,2.80
2017-08-20T14:00:17.913Z,3.33
2017-08-20T14:02:45.479Z,2.63
2017-08-20T14:05:13.028Z,2.80
2017-08-20T14:07:40.604Z,3.77
2017-08-20T14:10:08.147Z,2.30
2017-08-20T14:12:35.679Z,1.90
2017-08-20T14:15:03.270Z,2.00
2017-08-20T14:17:30.807Z,2.40
2017-08-20T14:19:58.360Z,2.37
2017-08-20T14:22:25.944Z,3.03
2017-08-20T14:24:53.492Z,3.20
2017-08-20T14:27:21.035Z,2.63
2017-08-20T14:29:48.597Z,3.40
2017-08-20T14:32:16.958Z,3.80
2017-08-20T14:34:45.263Z,3.27
2017-08-20T14:37:12.847Z,2.50
2017-08-20T14:39:40.401Z,3.27
2017-08-20T14:42:07.952Z,3.00
2017-08-20T14:44:36.399Z,3.07
2017-08-20T14:47:04.033Z,3.00
2017-08-20T14:49:31.626Z,2.27
2017-08-20T14:51:59.999Z,2.33
2017-08-20T14:54:27.547Z,2.53
2017-08-20T14:56:55.091Z,3.20
2017-08-20T14:59:27.606Z,2.77
2017-08-20T15:01:55.282Z,2.87
2017-08-20T15:04:23.632Z,2.40
2017-08-20T15:06:51.170Z,2.87
2017-08-20T15:09:18.725Z,2.63
2017-08-20T15:11:46.304Z,3.37
2017-08-20T15:14:14.894Z,2.00
2017-08-20T15:16:43.584Z,2.33
2017-08-20T15:19:14.381Z,2.37
2017-08-20T15:21:41.937Z,2.60
2017-08-20T15:24:09.573Z,2.17
2017-08-20T15:26:37.672Z,1.80
2017-08-20T15:29:05.971Z,2.20
2017-08-20T15:31:33.515Z,2.20
2017-08-20T15:34:01.084Z,1.53
2017-08-20T15:36:28.639Z,2.40
2017-08-20T15:38:56.205Z,2.23
2017-08-20T15:41:23.771Z,2.97
2017-08-20T15:43:51.314Z,2.13
2017-08-20T15:46:19.655Z,2.10
2017-08-20T15:48:47.190Z,1.93
2017-08-20T15:51:14.771Z,2.20
2017-08-20T15:53:42.370Z,3.27
2017-08-20T15:56:10.674Z,2.50
2017-08-20T15:58:38.317Z,2.60
2017-08-20T16:01:06.860Z,2.00
2017-08-20T16:03:35.732Z,2.50
2017-08-20T16:06:03.298Z,2.10
2017-08-20T16:08:30.852Z,2.10
2017-08-20T16:10:58.413Z,2.00
2017-08-20T16:13:25.964Z,2.40
2017-08-20T16:15:53.507Z,2.30
2017-08-20T16:18:21.816Z,2.60
2017-08-20T16:20:49.377Z,2.30
2017-08-20T16:23:16.961Z,1.80
2017-08-20T16:25:44.480Z,2.30
2017-08-20T16:28:12.024Z,2.57
2017-08-20T16:30:40.369Z,2.00
2017-08-20T16:33:07.898Z,1.90
2017-08-20T16:35:35.460Z,2.07
2017-08-20T16:38:03.000Z,2.20
2017-08-20T16:40:31.292Z,1.90
2017-08-20T16:42:58.836Z,2.03
2017-08-20T16:45:27.139Z,1.50
2017-08-20T16:47:54.728Z,1.70
2017-08-20T16:50:22.251Z,1.97
2017-08-20T16:52:50.538Z,1.60
2017-08-20T16:55:18.093Z,2.10
2017-08-20T16:57:45.636Z,1.90
2017-08-20T17:00:13.234Z,2.17
2017-08-20T17:02:40.810Z,2.20
2017-08-20T17:05:08.338Z,2.53
2017-08-20T17:07:36.672Z,2.33
2017-08-20T17:10:04.223Z,2.10
2017-08-20T17:12:31.799Z,3.07
2017-08-20T17:14:59.339Z,2.33
2017-08-20T17:17:26.883Z,1.70
2017-08-20T17:19:54.424Z,2.20
2017-08-20T17:22:22.723Z,2.73
2017-08-20T17:24:50.278Z,1.90
2017-08-20T17:27:17.916Z,2.10
2017-08-20T17:29:46.230Z,1.80
2017-08-20T17:32:13.784Z,1.50
2017-08-20T17:34:41.321Z,2.17
2017-08-20T17:37:09.745Z,1.53
2017-08-20T17:39:37.295Z,2.20
2017-08-20T17:42:04.853Z,2.67
2017-08-20T17:44:32.409Z,2.20
2017-08-20T17:46:59.956Z,2.40
2017-08-20T17:49:29.233Z,2.00
2017-08-20T17:51:56.776Z,2.70
2017-08-20T17:54:24.324Z,2.67
2017-08-20T17:56:51.893Z,2.73
2017-08-20T17:59:19.440Z,2.10
2017-08-20T18:01:47.016Z,2.90
2017-08-20T18:04:14.572Z,2.40
2017-08-20T18:06:42.122Z,2.30
2017-08-20T18:09:09.696Z,2.10
2017-08-20T18:11:37.229Z,2.30
2017-08-20T18:14:04.803Z,2.80
2017-08-20T18:16:32.348Z,2.90
2017-08-20T18:18:59.877Z,2.80
2017-08-20T18:21:27.468Z,2.67
2017-08-20T18:23:55.010Z,2.27
2017-08-20T18:26:22.570Z,1.93
2017-08-20T18:28:50.098Z,2.63
2017-08-20T18:31:17.624Z,2.27
2017-08-20T18:33:45.212Z,2.53
2017-08-20T18:36:12.741Z,2.57
2017-08-20T18:38:40.332Z,2.30
2017-08-20T18:41:07.872Z,2.37
2017-08-20T18:43:35.484Z,2.20
2017-08-20T18:46:03.063Z,2.20
2017-08-20T18:48:31.395Z,2.50
2017-08-20T18:50:58.961Z,2.80
2017-08-20T18:53:26.514Z,3.00
2017-08-20T18:55:54.046Z,2.83
2017-08-20T18:58:21.669Z,2.13
2017-08-20T19:00:49.235Z,2.20
2017-08-20T19:03:16.799Z,2.57
2017-08-20T19:05:44.351Z,2.77
2017-08-20T19:08:11.895Z,1.83
2017-08-20T19:10:39.472Z,2.17
2017-08-20T19:13:07.013Z,2.40
2017-08-20T19:15:34.580Z,2.27
2017-08-20T19:18:02.113Z,2.10
2017-08-20T19:20:29.686Z,2.50
2017-08-20T19:22:57.338Z,2.70
2017-08-20T19:25:24.883Z,2.87
2017-08-20T19:27:53.219Z,2.53
2017-08-20T19:30:20.760Z,2.13
2017-08-20T19:32:48.285Z,2.60
2017-08-20T19:35:16.613Z,2.70
2017-08-20T19:37:44.164Z,2.93
2017-08-20T19:40:11.732Z,2.80
2017-08-20T19:42:39.271Z,3.10
2017-08-20T19:45:06.833Z,2.60
2017-08-20T19:47:34.388Z,2.40
2017-08-20T19:50:01.932Z,2.83
2017-08-20T19:52:30.281Z,2.57
2017-08-20T19:54:57.823Z,3.70
2017-08-20T19:57:25.381Z,2.90
2017-08-20T19:59:52.953Z,2.53
2017-08-20T20:02:20.516Z,3.00
2017-08-20T20:04:48.100Z,2.90
2017-08-20T20:07:15.645Z,3.23
2017-08-20T20:09:43.200Z,2.90
2017-08-20T20:12:10.767Z,2.77
2017-08-20T20:14:38.319Z,3.27
2017-08-20T20:17:05.896Z,2.47
2017-08-20T20:19:33.447Z,3.37
2017-08-20T20:22:00.985Z,2.63
2017-08-20T20:24:28.557Z,3.10
2017-08-20T20:26:56.096Z,3.00
2017-08-20T20:29:23.675Z,2.90
2017-08-20T20:31:51.256Z,2.97
2017-08-20T20:34:18.821Z,3.43
2017-08-20T20:36:46.487Z,3.17
2017-08-20T20:39:14.040Z,2.80
2017-08-20T20:41:41.622Z,2.90
2017-08-20T20:44:09.198Z,3.23
2017-08-20T20:46:36.760Z,3.23
2017-08-20T20:49:04.334Z,3.10
2017-08-20T20:51:31.882Z,3.40
2017-08-20T20:53:59.453Z,3.67
2017-08-20T20:56:27.758Z,4.10
2017-08-20T20:58:55.353Z,3.00
2017-08-20T21:01:22.928Z,3.17
2017-08-20T21:03:50.465Z,3.47
2017-08-20T21:06:18.032Z,2.87
2017-08-20T21:08:45.591Z,3.33
2017-08-20T21:11:13.112Z,3.00
2017-08-20T21:13:40.686Z,3.43
2017-08-20T21:16:08.212Z,3.62
2017-08-20T21:18:35.801Z,2.80
2017-08-20T21:21:03.366Z,3.70
2017-08-20T21:23:30.915Z,3.40
2017-08-20T21:25:58.488Z,2.60
2017-08-20T21:28:26.041Z,3.03
2017-08-20T21:30:53.605Z,3.00
2017-08-20T21:33:21.137Z,3.47
2017-08-20T21:35:48.672Z,3.77
2017-08-20T21:38:16.242Z,3.17
2017-08-20T21:40:43.799Z,3.27
2017-08-20T21:43:11.397Z,3.47
2017-08-20T21:45:38.925Z,3.57
2017-08-20T21:48:06.471Z,3.45
2017-08-20T21:50:34.947Z,2.70
2017-08-20T21:53:02.487Z,3.70
2017-08-20T21:55:30.053Z,3.67
2017-08-20T21:57:58.369Z,3.33
2017-08-20T22:00:25.919Z,3.13
2017-08-20T22:02:53.474Z,2.83
2017-08-20T22:05:21.020Z,3.10
2017-08-20T22:07:48.607Z,3.47
2017-08-20T22:10:16.134Z,3.50
2017-08-20T22:12:43.679Z,3.00
2017-08-20T22:15:11.257Z,3.33
2017-08-20T22:17:38.808Z,2.93
2017-08-20T22:20:07.141Z,2.90
2017-08-20T22:22:34.674Z,3.20
2017-08-20T22:25:02.222Z,3.40
2017-08-20T22:27:29.792Z,4.53
2017-08-20T22:29:57.338Z,3.80
2017-08-20T22:32:24.923Z,3.10
2017-08-20T22:34:52.452Z,2.83
2017-08-20T22:37:20.023Z,3.57
2017-08-20T22:39:48.358Z,3.77
2017-08-20T22:42:15.890Z,3.60
2017-08-20T22:44:43.460Z,4.53
2017-08-20T22:47:10.992Z,3.20
2017-08-20T22:49:38.547Z,3.37
2017-08-20T22:52:06.875Z,3.70
2017-08-20T22:54:34.420Z,3.27
2017-08-20T22:57:01.995Z,3.60
2017-08-20T22:59:29.539Z,3.13
2017-08-20T23:01:57.078Z,3.00
2017-08-20T23:04:24.634Z,2.80
2017-08-20T23:06:52.169Z,3.67
2017-08-20T23:09:19.754Z,3.70
2017-08-20T23:11:47.300Z,3.30
2017-08-20T23:14:14.830Z,3.60
2017-08-20T23:16:42.381Z,3.30
2017-08-20T23:19:09.910Z,3.70
2017-08-20T23:21:37.483Z,3.30
2017-08-20T23:24:05.067Z,3.90
2017-08-20T23:26:32.592Z,4.37
2017-08-20T23:29:00.156Z,3.20
2017-08-20T23:31:27.718Z,4.13
2017-08-20T23:33:55.288Z,4.60
2017-08-20T23:36:22.828Z,3.87
2017-08-20T23:38:50.364Z,3.50
2017-08-20T23:41:17.935Z,3.30
2017-08-20T23:43:45.457Z,3.37
2017-08-20T23:46:13.042Z,3.33
2017-08-20T23:48:40.599Z,3.60
2017-08-20T23:51:08.124Z,3.10
2017-08-20T23:53:35.689Z,3.70
2017-08-20T23:56:03.223Z,3.70
2017-08-20T23:58:30.808Z,3.63
